Heiner, Kentucky
Current Conditions -  °F | °C
As of 7:53 AM on Tuesday 21 Oct 2014 (Local Time) from KJKL Reporting Station
Broken Clouds Broken Clouds  
Wind Chill:   Ceiling: 6500
Heat Index:   Visibility: 7mi
Dew Point:   Wind: 3mph
Humidity: 93%   Direction: NA
Pressure: 29.96"   Gusts: NA
Location:  37.3318°N, 83.1697°W
Report Text: KJKL 211153Z AUTO VRB03KT 7SM SCT006 BKN065 09/08 A2996 RMK AO2 SLP142 60001 70002 T00890078 10111 20089 53007
Loading
Personal Weather Stations






























Interactive Weather Map
Tropical Storm Tracking
New forecast layout! Learn more

10-Day Weather Forecast

Advertisements
Track Severe Weather on mobile